• Join FlightAware (Why Join?)
  • Login
  • US Flag 
09:28AM EST


 

Airport Tracker/Info


-or-


 

Live Flight TrackerFlight Track Log ✈ THY2190 ✈ 04-Jul-2013 ✈ LTBA / IST - LTAC / ESB

Flight Track Log - Related Links

Times and Time Zones

All times are in EDT time to prevent confusion due to time zone crossing. See the THY2190 flight status page for this flight to view local times or setup timezone preferences in your user account.

Time Position Orientation Groundspeed Altitude Reporting Facility
EDT Latitude Longitude Course Direction KTS MPH feet Rate Location/Type
05:02PM 40.9830 28.8130 272° West 3 3  Level FlightAware
05:03PM 40.9830 28.8140 90° East 1 1 120 Level FlightAware
05:06PM 40.9375 29.0594 104° East  Level Estimated
05:07PM 40.9200 29.1532 104° East  Level Estimated
05:08PM 40.9025 29.2468 104° East  Level Estimated
05:09PM 40.8848 29.3404 104° East  Level Estimated
05:11PM 40.9710 28.8120 180° South 2 2  Level FlightAware
05:11PM 40.9700 28.8120 180° South 8 9 360 Level FlightAware
05:14PM 40.9322 29.0201 103° East  Level Estimated
05:15PM 40.9150 29.1139 104° East  Level Estimated
05:15PM 41.0060 28.8060 104° East 148 170 1,600  Level FlightAware
05:15PM 41.0390 28.8060 360° North 192 221 2,500 2,160 Climbing FlightAware
05:16PM 41.0680 28.8090 North 222 255 3,600 2,340 Climbing FlightAware
05:16PM 41.0780 28.8200 40° Northeast 227 261 4,300 2,400 Climbing FlightAware
05:17PM 41.0870 28.8500 68° East 245 282 5,000 2,580 Climbing FlightAware
05:17PM 41.0940 28.9040 80° East 270 311 6,700 2,820 Climbing FlightAware
05:18PM 41.1020 28.9590 79° East 275 316 8,100 2,280 Climbing FlightAware
05:18PM 41.1060 28.9930 81° East 284 327 8,600 1,200 Climbing FlightAware
05:18PM 41.1140 29.0470 79° East 328 377 9,100 1,320 Climbing FlightAware
05:19PM 41.1170 29.0790 83° East 344 396 9,600 2,220 Climbing FlightAware
05:19PM 41.1050 29.1250 109° East 352 405 10,600 2,400 Climbing FlightAware
05:20PM 41.0560 29.2220 124° Southeast 367 422 12,600 2,160 Climbing FlightAware
05:21PM 41.0230 29.2930 122° Southeast 377 434 13,900 1,500 Climbing FlightAware
05:21PM 40.9770 29.3910 122° Southeast 406 467 14,800 1,320 Climbing FlightAware
05:22PM 40.9340 29.4810 122° Southeast 429 494 15,800 1,800 Climbing FlightAware
05:23PM 40.8920 29.5710 122° Southeast 435 501 17,200 1,980 Climbing FlightAware
05:23PM 40.8480 29.6630 122° Southeast 440 506 18,500 2,220 Climbing FlightAware
05:24PM 40.8000 29.7650 122° Southeast 435 501 20,400 3,240 Climbing FlightAware
05:25PM 40.7420 29.8870 122° Southeast 393 452 24,200 2,940 Climbing FlightAware
05:26PM 40.7020 29.9700 122° Southeast 398 458 25,300 1,620 Climbing FlightAware
05:26PM 40.6600 30.0580 122° Southeast 409 471 26,400 1,260 Climbing FlightAware
05:27PM 40.6180 30.1450 122° Southeast 423 487 27,000 420 Climbing FlightAware
05:28PM 40.5810 30.2230 122° Southeast 426 490 27,000  Level FlightAware
05:29PM 40.5310 30.3250 123° Southeast 427 491 27,000  Level FlightAware
05:29PM 40.4900 30.4100 122° Southeast 426 490 27,000  Level FlightAware
05:30PM 40.4410 30.5100 123° Southeast 425 489 27,000  Level FlightAware
05:31PM 40.3970 30.6010 122° Southeast 424 488 27,000  Level FlightAware
05:31PM 40.3520 30.6930 123° Southeast 425 489 27,000  Level FlightAware
05:32PM 40.3190 30.7730 118° Southeast 431 496 27,000  Level FlightAware
05:33PM 40.3020 30.8870 101° East 436 502 27,000  Level FlightAware
05:33PM 40.2910 30.9930 98° East 435 501 27,000 -720 Level FlightAware
05:34PM 40.2790 31.1000 98° East 439 505 26,100 -1,740 Descending FlightAware
05:35PM 40.2680 31.2070 98° East 431 496 24,700 -2,040 Descending FlightAware
05:35PM 40.2570 31.3090 98° East 420 483 23,400 -1,860 Descending FlightAware
05:36PM 40.2450 31.4210 98° East 411 473 22,100 -1,800 Descending FlightAware
05:37PM 40.2340 31.5160 99° East 402 463 20,900 -1,740 Descending FlightAware
05:37PM 40.2130 31.6090 106° East 387 445 19,800 -2,700 Descending FlightAware
05:38PM 40.1870 31.7100 109° East 407 468 17,100 -2,940 Descending FlightAware
05:39PM 40.1620 31.8050 109° East 396 456 15,700 -2,100 Descending FlightAware
05:39PM 40.1420 31.8820 109° East 387 445 14,500 -2,100 Descending FlightAware
05:40PM 40.1170 31.9750 109° East 376 433 12,900 -2,220 Descending FlightAware
05:41PM 40.0960 32.0540 109° East 366 421 11,600 -1,860 Descending FlightAware
05:41PM 40.0740 32.1320 110° East 346 398 10,600 -1,560 Descending FlightAware
05:42PM 40.0510 32.2210 109° East 327 376 9,400 -1,500 Descending FlightAware
05:42PM 40.0460 32.2390 110° East 321 369 9,200 -900 Descending FlightAware
05:43PM 40.0350 32.2830 108° East 300 345 8,900 -900 Descending FlightAware
05:43PM 40.0250 32.3200 109° East 285 328 8,500 -1,080 Descending FlightAware
05:44PM 40.0130 32.3650 109° East 284 327 8,000 -600 Descending FlightAware
05:44PM 40.0000 32.4140 109° East 285 328 8,000 -240 Level FlightAware
05:45PM 39.9860 32.4610 111° Southeast 285 328 7,800 -900 Descending FlightAware
05:45PM 39.9740 32.5030 110° East 285 328 7,200 -1,440 Descending FlightAware
05:46PM 39.9610 32.5470 111° Southeast 281 323 6,500 -960 Descending FlightAware
05:46PM 39.9530 32.5750 110° East 281 323 6,500  Level FlightAware
05:46PM 39.9470 32.6160 101° East 279 321 6,500  Level FlightAware
05:47PM 39.9450 32.6450 95° East 275 316 6,500  Level FlightAware
05:47PM 39.9420 32.6910 95° East 278 320 6,500  Level FlightAware
05:47PM 39.9380 32.7410 96° East 277 319 6,500  Level FlightAware
05:48PM 39.9440 32.7800 79° East 262 302 6,500  Level FlightAware
05:48PM 39.9530 32.8030 63° Northeast 239 275 6,500  Level FlightAware
05:48PM 39.9570 32.8150 66° East 223 257 6,500 -300 Level FlightAware
05:49PM 39.9730 32.8480 58° Northeast 209 241 6,300 -720 Descending FlightAware
05:49PM 39.9960 32.8710 37° Northeast 200 230 5,800 -1,140 Descending FlightAware
05:50PM 40.0240 32.8980 36° Northeast 195 224 5,100 -1,080 Descending FlightAware
05:50PM 40.0280 32.9010 30° Northeast 191 220 5,000 -720 Descending FlightAware
05:51PM 40.0500 32.9230 37° Northeast 147 169 4,600 -900 Descending FlightAware
05:51PM 40.0630 32.9350 35° Northeast 131 151 4,200 -720 Descending FlightAware
05:52PM 40.0800 32.9500 34° Northeast 132 152 3,900 -540 Descending FlightAware
05:52PM 40.0850 32.9550 37° Northeast 132 152 3,800 -780 Descending FlightAware
05:52PM 40.1040 32.9740 37° Northeast 132 152 3,300 -840 Descending FlightAware
05:53PM 40.1210 32.9900 36° Northeast 120 138 -5,700 Descending FlightAware
05:54PM 40.1290 32.9970 34° Northeast 38 44  Level FlightAware
05:55PM 40.1220 32.9940 198° South 11 13  Level FlightAware
05:56PM 40.1200 32.9910 229° Southwest 15 17  Level FlightAware
05:57PM 40.1180 32.9900 201° Southwest 16 18  Level FlightAware
05:57PM 40.1170 32.9890 217° Southwest 15 17  Level FlightAware
05:57PM 40.1160 32.9890 180° South 6 7  Level FlightAware
05:58PM 40.1150 32.9890 180° South 6 7  Level FlightAware
05:59PM 40.1150 32.9900 90° East 1 1  Level FlightAware
06:01PM 40.1281 32.9951 17° North  Level Estimated
06:02PM 40.1281 32.9951 49° Northeast  Level Estimated
06:03PM 40.1281 32.9951 49° Northeast  Level Estimated
06:04PM 40.1281 32.9951 49° Northeast  Level Estimated